sensor_id;sensor_type;location;lat;lon;timestamp;pressure;altitude;pressure_sealevel;temperature
45393;BMP280;31129;44.810;10.334;2023-04-25T00:00:37;99903.78;;;14.89
45393;BMP280;31129;44.810;10.334;2023-04-25T00:03:02;99908.06;;;14.85
45393;BMP280;31129;44.810;10.334;2023-04-25T00:05:28;99896.78;;;14.88
45393;BMP280;31129;44.810;10.334;2023-04-25T00:07:54;99901.69;;;14.95
45393;BMP280;31129;44.810;10.334;2023-04-25T00:10:20;99890.59;;;14.82
45393;BMP280;31129;44.810;10.334;2023-04-25T00:12:46;99902.19;;;14.75
45393;BMP280;31129;44.810;10.334;2023-04-25T00:15:11;99900.38;;;14.78
45393;BMP280;31129;44.810;10.334;2023-04-25T00:17:37;99911.25;;;14.64
45393;BMP280;31129;44.810;10.334;2023-04-25T00:20:04;99908.06;;;14.60
45393;BMP280;31129;44.810;10.334;2023-04-25T00:22:36;99897.72;;;14.72
45393;BMP280;31129;44.810;10.334;2023-04-25T00:25:04;99903.44;;;14.74
45393;BMP280;31129;44.810;10.334;2023-04-25T00:27:30;99902.78;;;14.62
45393;BMP280;31129;44.810;10.334;2023-04-25T00:29:55;99905.38;;;14.55
45393;BMP280;31129;44.810;10.334;2023-04-25T00:32:21;99902.66;;;14.49
45393;BMP280;31129;44.810;10.334;2023-04-25T00:34:46;99901.88;;;14.54
45393;BMP280;31129;44.810;10.334;2023-04-25T00:37:12;99898.72;;;14.45
45393;BMP280;31129;44.810;10.334;2023-04-25T00:39:37;99903.63;;;14.52
45393;BMP280;31129;44.810;10.334;2023-04-25T00:42:03;99896.25;;;14.41
45393;BMP280;31129;44.810;10.334;2023-04-25T00:44:30;99889.69;;;14.50
45393;BMP280;31129;44.810;10.334;2023-04-25T00:46:55;99895.09;;;14.31
45393;BMP280;31129;44.810;10.334;2023-04-25T00:49:21;99895.47;;;14.46
45393;BMP280;31129;44.810;10.334;2023-04-25T00:51:46;99903.22;;;14.12
45393;BMP280;31129;44.810;10.334;2023-04-25T00:54:12;99890.44;;;14.20
45393;BMP280;31129;44.810;10.334;2023-04-25T00:56:39;99894.13;;;14.28
45393;BMP280;31129;44.810;10.334;2023-04-25T00:59:04;99885.91;;;14.28
45393;BMP280;31129;44.810;10.334;2023-04-25T01:01:30;99883.94;;;14.18
45393;BMP280;31129;44.810;10.334;2023-04-25T01:03:58;99881.56;;;14.09
45393;BMP280;31129;44.810;10.334;2023-04-25T01:06:26;99873.34;;;14.03
45393;BMP280;31129;44.810;10.334;2023-04-25T01:08:52;99883.84;;;13.99
45393;BMP280;31129;44.810;10.334;2023-04-25T01:11:18;99887.13;;;13.98
45393;BMP280;31129;44.810;10.334;2023-04-25T01:13:43;99875.22;;;14.19
45393;BMP280;31129;44.810;10.334;2023-04-25T01:16:09;99877.09;;;14.00
45393;BMP280;31129;44.810;10.334;2023-04-25T01:18:38;99866.38;;;14.02
45393;BMP280;31129;44.810;10.334;2023-04-25T01:21:24;99874.94;;;13.87
45393;BMP280;31129;44.810;10.334;2023-04-25T01:23:53;99876.94;;;13.87
45393;BMP280;31129;44.810;10.334;2023-04-25T01:26:20;99879.09;;;14.00
45393;BMP280;31129;44.810;10.334;2023-04-25T01:28:47;99875.44;;;13.86
45393;BMP280;31129;44.810;10.334;2023-04-25T01:31:12;99869.75;;;13.84
45393;BMP280;31129;44.810;10.334;2023-04-25T01:33:38;99867.19;;;13.97
45393;BMP280;31129;44.810;10.334;2023-04-25T01:36:06;99870.09;;;14.05
45393;BMP280;31129;44.810;10.334;2023-04-25T01:38:34;99869.88;;;14.03
45393;BMP280;31129;44.810;10.334;2023-04-25T01:41:00;99865.69;;;13.96
45393;BMP280;31129;44.810;10.334;2023-04-25T01:43:26;99873.69;;;13.88
45393;BMP280;31129;44.810;10.334;2023-04-25T01:45:52;99875.25;;;13.84
45393;BMP280;31129;44.810;10.334;2023-04-25T01:48:17;99875.53;;;13.75
45393;BMP280;31129;44.810;10.334;2023-04-25T01:50:46;99880.03;;;13.72
45393;BMP280;31129;44.810;10.334;2023-04-25T01:53:13;99867.66;;;13.60
45393;BMP280;31129;44.810;10.334;2023-04-25T01:55:38;99872.88;;;13.58
45393;BMP280;31129;44.810;10.334;2023-04-25T01:58:11;99874.59;;;13.67
45393;BMP280;31129;44.810;10.334;2023-04-25T02:00:59;99871.94;;;13.50
45393;BMP280;31129;44.810;10.334;2023-04-25T02:03:31;99870.22;;;13.41
45393;BMP280;31129;44.810;10.334;2023-04-25T02:05:58;99867.47;;;13.41
45393;BMP280;31129;44.810;10.334;2023-04-25T02:08:24;99865.22;;;13.45
45393;BMP280;31129;44.810;10.334;2023-04-25T02:10:53;99862.97;;;13.49
45393;BMP280;31129;44.810;10.334;2023-04-25T02:13:19;99866.47;;;13.44
45393;BMP280;31129;44.810;10.334;2023-04-25T02:15:57;99863.22;;;13.51
45393;BMP280;31129;44.810;10.334;2023-04-25T02:18:22;99872.94;;;13.41
45393;BMP280;31129;44.810;10.334;2023-04-25T02:20:48;99873.94;;;13.49
45393;BMP280;31129;44.810;10.334;2023-04-25T02:23:13;99865.50;;;13.47
45393;BMP280;31129;44.810;10.334;2023-04-25T02:25:40;99867.72;;;13.43
45393;BMP280;31129;44.810;10.334;2023-04-25T02:28:07;99869.22;;;13.44
45393;BMP280;31129;44.810;10.334;2023-04-25T02:30:32;99860.81;;;13.31
45393;BMP280;31129;44.810;10.334;2023-04-25T02:32:58;99857.25;;;13.42
45393;BMP280;31129;44.810;10.334;2023-04-25T02:35:24;99865.41;;;13.59
45393;BMP280;31129;44.810;10.334;2023-04-25T02:37:52;99863.53;;;13.37
45393;BMP280;31129;44.810;10.334;2023-04-25T02:40:17;99866.75;;;13.46
45393;BMP280;31129;44.810;10.334;2023-04-25T02:42:42;99857.88;;;13.18
45393;BMP280;31129;44.810;10.334;2023-04-25T02:45:08;99858.34;;;13.28
45393;BMP280;31129;44.810;10.334;2023-04-25T02:47:34;99849.91;;;13.20
45393;BMP280;31129;44.810;10.334;2023-04-25T02:49:59;99847.41;;;13.22
45393;BMP280;31129;44.810;10.334;2023-04-25T02:52:25;99845.94;;;13.10
45393;BMP280;31129;44.810;10.334;2023-04-25T02:54:58;99836.06;;;13.01
45393;BMP280;31129;44.810;10.334;2023-04-25T02:57:24;99843.94;;;13.16
45393;BMP280;31129;44.810;10.334;2023-04-25T02:59:50;99836.72;;;13.18
45393;BMP280;31129;44.810;10.334;2023-04-25T03:02:15;99834.25;;;13.15
45393;BMP280;31129;44.810;10.334;2023-04-25T03:04:41;99829.75;;;13.12
45393;BMP280;31129;44.810;10.334;2023-04-25T03:07:06;99833.53;;;12.98
45393;BMP280;31129;44.810;10.334;2023-04-25T03:09:32;99829.84;;;12.95
45393;BMP280;31129;44.810;10.334;2023-04-25T03:11:57;99827.09;;;13.01
45393;BMP280;31129;44.810;10.334;2023-04-25T03:14:23;99821.63;;;13.01
45393;BMP280;31129;44.810;10.334;2023-04-25T03:16:48;99821.63;;;12.84
45393;BMP280;31129;44.810;10.334;2023-04-25T03:19:16;99818.44;;;12.80
45393;BMP280;31129;44.810;10.334;2023-04-25T03:21:42;99823.28;;;13.09
45393;BMP280;31129;44.810;10.334;2023-04-25T03:24:07;99824.28;;;13.17
45393;BMP280;31129;44.810;10.334;2023-04-25T03:26:33;99817.19;;;12.87
45393;BMP280;31129;44.810;10.334;2023-04-25T03:28:58;99820.59;;;12.98
45393;BMP280;31129;44.810;10.334;2023-04-25T03:31:24;99820.53;;;13.21
45393;BMP280;31129;44.810;10.334;2023-04-25T03:33:50;99819.03;;;13.20
45393;BMP280;31129;44.810;10.334;2023-04-25T03:36:17;99818.59;;;12.99
45393;BMP280;31129;44.810;10.334;2023-04-25T03:38:43;99821.81;;;13.08
45393;BMP280;31129;44.810;10.334;2023-04-25T03:41:09;99815.19;;;12.87
45393;BMP280;31129;44.810;10.334;2023-04-25T03:43:39;99819.16;;;12.86
45393;BMP280;31129;44.810;10.334;2023-04-25T03:46:09;99806.97;;;12.87
45393;BMP280;31129;44.810;10.334;2023-04-25T03:48:35;99808.41;;;12.99
45393;BMP280;31129;44.810;10.334;2023-04-25T03:51:00;99815.69;;;12.86
45393;BMP280;31129;44.810;10.334;2023-04-25T03:53:26;99810.22;;;12.80
45393;BMP280;31129;44.810;10.334;2023-04-25T03:56:12;99821.16;;;12.80
45393;BMP280;31129;44.810;10.334;2023-04-25T03:58:39;99831.63;;;12.76
45393;BMP280;31129;44.810;10.334;2023-04-25T04:01:05;99826.91;;;12.76
45393;BMP280;31129;44.810;10.334;2023-04-25T04:03:34;99824.16;;;12.82
45393;BMP280;31129;44.810;10.334;2023-04-25T04:06:03;99821.66;;;12.78
45393;BMP280;31129;44.810;10.334;2023-04-25T04:08:32;99822.88;;;12.83
45393;BMP280;31129;44.810;10.334;2023-04-25T04:10:58;99822.91;;;12.77
45393;BMP280;31129;44.810;10.334;2023-04-25T04:13:28;99830.66;;;12.73
45393;BMP280;31129;44.810;10.334;2023-04-25T04:15:54;99831.66;;;12.70
45393;BMP280;31129;44.810;10.334;2023-04-25T04:18:20;99833.63;;;12.64
45393;BMP280;31129;44.810;10.334;2023-04-25T04:20:46;99831.69;;;12.37
45393;BMP280;31129;44.810;10.334;2023-04-25T04:23:11;99846.59;;;12.36
45393;BMP280;31129;44.810;10.334;2023-04-25T04:25:37;99839.91;;;12.42
45393;BMP280;31129;44.810;10.334;2023-04-25T04:28:28;99838.91;;;12.40
45393;BMP280;31129;44.810;10.334;2023-04-25T04:31:01;99840.66;;;12.32
45393;BMP280;31129;44.810;10.334;2023-04-25T04:33:28;99851.81;;;12.23
45393;BMP280;31129;44.810;10.334;2023-04-25T04:35:57;99848.84;;;12.15
45393;BMP280;31129;44.810;10.334;2023-04-25T04:38:23;99854.56;;;12.17
45393;BMP280;31129;44.810;10.334;2023-04-25T04:40:50;99859.53;;;12.02
45393;BMP280;31129;44.810;10.334;2023-04-25T04:43:43;99866.75;;;12.11
45393;BMP280;31129;44.810;10.334;2023-04-25T04:46:27;99861.28;;;12.05
45393;BMP280;31129;44.810;10.334;2023-04-25T04:49:11;99874.69;;;12.03
45393;BMP280;31129;44.810;10.334;2023-04-25T04:51:54;99880.63;;;12.07
45393;BMP280;31129;44.810;10.334;2023-04-25T04:54:35;99870.44;;;11.91
45393;BMP280;31129;44.810;10.334;2023-04-25T04:57:12;99878.66;;;12.13
45393;BMP280;31129;44.810;10.334;2023-04-25T05:00:11;99877.69;;;12.16
45393;BMP280;31129;44.810;10.334;2023-04-25T05:02:49;99882.88;;;12.03
45393;BMP280;31129;44.810;10.334;2023-04-25T05:05:27;99884.88;;;12.08
45393;BMP280;31129;44.810;10.334;2023-04-25T05:08:13;99891.56;;;11.90
45393;BMP280;31129;44.810;10.334;2023-04-25T05:10:56;99893.50;;;11.73
45393;BMP280;31129;44.810;10.334;2023-04-25T05:13:32;99897.47;;;11.72
45393;BMP280;31129;44.810;10.334;2023-04-25T05:15:57;99901.94;;;11.75
45393;BMP280;31129;44.810;10.334;2023-04-25T05:18:44;99912.31;;;11.60
45393;BMP280;31129;44.810;10.334;2023-04-25T05:21:25;99919.69;;;11.43
45393;BMP280;31129;44.810;10.334;2023-04-25T05:24:12;99919.44;;;11.41
45393;BMP280;31129;44.810;10.334;2023-04-25T05:27:00;99925.63;;;11.35
45393;BMP280;31129;44.810;10.334;2023-04-25T05:30:05;99921.00;;;11.47
45393;BMP280;31129;44.810;10.334;2023-04-25T05:32:45;99928.63;;;11.37
45393;BMP280;31129;44.810;10.334;2023-04-25T05:35:12;99937.16;;;11.08
45393;BMP280;31129;44.810;10.334;2023-04-25T05:37:44;99923.56;;;11.19
45393;BMP280;31129;44.810;10.334;2023-04-25T05:40:12;99936.81;;;11.32
45393;BMP280;31129;44.810;10.334;2023-04-25T05:42:43;99928.84;;;11.34
45393;BMP280;31129;44.810;10.334;2023-04-25T05:45:24;99935.34;;;11.42
45393;BMP280;31129;44.810;10.334;2023-04-25T05:48:25;99930.28;;;11.24
45393;BMP280;31129;44.810;10.334;2023-04-25T05:51:08;99935.31;;;11.36
45393;BMP280;31129;44.810;10.334;2023-04-25T05:53:51;99939.78;;;11.34
45393;BMP280;31129;44.810;10.334;2023-04-25T05:56:17;99941.19;;;11.66
45393;BMP280;31129;44.810;10.334;2023-04-25T05:58:44;99948.63;;;11.71
45393;BMP280;31129;44.810;10.334;2023-04-25T06:01:11;99955.34;;;11.65
45393;BMP280;31129;44.810;10.334;2023-04-25T06:03:37;99946.47;;;11.81
45393;BMP280;31129;44.810;10.334;2023-04-25T06:06:06;99948.63;;;11.77
45393;BMP280;31129;44.810;10.334;2023-04-25T06:08:32;99953.44;;;11.99
45393;BMP280;31129;44.810;10.334;2023-04-25T06:10:57;99959.63;;;11.88
45393;BMP280;31129;44.810;10.334;2023-04-25T06:13:26;99949.28;;;12.09
45393;BMP280;31129;44.810;10.334;2023-04-25T06:15:51;99955.00;;;12.22
45393;BMP280;31129;44.810;10.334;2023-04-25T06:18:17;99951.03;;;12.34
45393;BMP280;31129;44.810;10.334;2023-04-25T06:20:42;99949.31;;;12.37
45393;BMP280;31129;44.810;10.334;2023-04-25T06:23:10;99950.81;;;12.49
45393;BMP280;31129;44.810;10.334;2023-04-25T06:25:49;99950.06;;;12.37
45393;BMP280;31129;44.810;10.334;2023-04-25T06:28:15;99959.28;;;12.57
45393;BMP280;31129;44.810;10.334;2023-04-25T06:30:42;99965.53;;;12.74
45393;BMP280;31129;44.810;10.334;2023-04-25T06:33:11;99958.53;;;12.78
45393;BMP280;31129;44.810;10.334;2023-04-25T06:35:38;99966.97;;;13.03
45393;BMP280;31129;44.810;10.334;2023-04-25T06:38:04;99965.47;;;13.13
45393;BMP280;31129;44.810;10.334;2023-04-25T06:40:31;99964.47;;;13.22
45393;BMP280;31129;44.810;10.334;2023-04-25T06:42:56;99966.47;;;13.21
45393;BMP280;31129;44.810;10.334;2023-04-25T06:45:40;99965.66;;;13.37
45393;BMP280;31129;44.810;10.334;2023-04-25T06:48:07;99965.41;;;13.46
45393;BMP280;31129;44.810;10.334;2023-04-25T06:50:33;99970.88;;;13.46
45393;BMP280;31129;44.810;10.334;2023-04-25T06:52:59;99969.31;;;13.62
45393;BMP280;31129;44.810;10.334;2023-04-25T06:55:27;99970.72;;;13.80
45393;BMP280;31129;44.810;10.334;2023-04-25T06:58:13;99971.66;;;13.94
45393;BMP280;31129;44.810;10.334;2023-04-25T07:00:52;99975.06;;;14.05
45393;BMP280;31129;44.810;10.334;2023-04-25T07:03:19;99967.56;;;14.06
45393;BMP280;31129;44.810;10.334;2023-04-25T07:05:45;99969.22;;;14.25
45393;BMP280;31129;44.810;10.334;2023-04-25T07:08:11;99973.88;;;14.36
45393;BMP280;31129;44.810;10.334;2023-04-25T07:10:36;99975.66;;;14.34
45393;BMP280;31129;44.810;10.334;2023-04-25T07:13:02;99970.28;;;14.52
45393;BMP280;31129;44.810;10.334;2023-04-25T07:15:30;99968.50;;;14.55
45393;BMP280;31129;44.810;10.334;2023-04-25T07:17:57;99973.00;;;14.58
45393;BMP280;31129;44.810;10.334;2023-04-25T07:20:25;99972.78;;;14.50
45393;BMP280;31129;44.810;10.334;2023-04-25T07:22:52;99974.59;;;14.72
45393;BMP280;31129;44.810;10.334;2023-04-25T07:25:18;99975.88;;;14.65
45393;BMP280;31129;44.810;10.334;2023-04-25T07:27:44;99977.94;;;14.59
45393;BMP280;31129;44.810;10.334;2023-04-25T07:30:13;99980.91;;;14.91
45393;BMP280;31129;44.810;10.334;2023-04-25T07:32:39;99975.63;;;14.99
45393;BMP280;31129;44.810;10.334;2023-04-25T07:35:05;99985.50;;;14.83
45393;BMP280;31129;44.810;10.334;2023-04-25T07:37:32;99990.97;;;14.83
45393;BMP280;31129;44.810;10.334;2023-04-25T07:40:18;99986.97;;;14.84
45393;BMP280;31129;44.810;10.334;2023-04-25T07:42:51;99988.75;;;14.82
45393;BMP280;31129;44.810;10.334;2023-04-25T07:45:23;99986.34;;;14.97
45393;BMP280;31129;44.810;10.334;2023-04-25T07:47:49;99996.84;;;14.98
45393;BMP280;31129;44.810;10.334;2023-04-25T07:50:16;99999.72;;;14.82
45393;BMP280;31129;44.810;10.334;2023-04-25T07:52:41;99994.75;;;14.80
45393;BMP280;31129;44.810;10.334;2023-04-25T07:55:16;100007.97;;;14.82
45393;BMP280;31129;44.810;10.334;2023-04-25T07:58:00;100010.59;;;14.98
45393;BMP280;31129;44.810;10.334;2023-04-25T08:00:28;100013.41;;;15.12
45393;BMP280;31129;44.810;10.334;2023-04-25T08:03:12;100011.63;;;15.20
45393;BMP280;31129;44.810;10.334;2023-04-25T08:05:37;100006.91;;;15.39
45393;BMP280;31129;44.810;10.334;2023-04-25T08:08:05;100018.25;;;15.54
45393;BMP280;31129;44.810;10.334;2023-04-25T08:10:32;100022.56;;;15.68
45393;BMP280;31129;44.810;10.334;2023-04-25T08:12:59;100025.19;;;15.61
45393;BMP280;31129;44.810;10.334;2023-04-25T08:15:25;100016.22;;;15.73
45393;BMP280;31129;44.810;10.334;2023-04-25T08:17:50;100020.94;;;15.60
45393;BMP280;31129;44.810;10.334;2023-04-25T08:20:16;100023.84;;;15.86
45393;BMP280;31129;44.810;10.334;2023-04-25T08:22:42;100022.06;;;15.89
45393;BMP280;31129;44.810;10.334;2023-04-25T08:25:21;100032.25;;;15.94
45393;BMP280;31129;44.810;10.334;2023-04-25T08:27:47;100029.94;;;15.98
45393;BMP280;31129;44.810;10.334;2023-04-25T08:30:12;100033.44;;;15.98
45393;BMP280;31129;44.810;10.334;2023-04-25T08:32:39;100033.59;;;16.06
45393;BMP280;31129;44.810;10.334;2023-04-25T08:35:28;100044.88;;;16.02
45393;BMP280;31129;44.810;10.334;2023-04-25T08:37:54;100035.59;;;16.05
45393;BMP280;31129;44.810;10.334;2023-04-25T08:40:22;100051.03;;;15.90
45393;BMP280;31129;44.810;10.334;2023-04-25T08:43:03;100049.53;;;15.94
45393;BMP280;31129;44.810;10.334;2023-04-25T08:45:31;100047.53;;;15.89
45393;BMP280;31129;44.810;10.334;2023-04-25T08:47:58;100052.44;;;16.21
45393;BMP280;31129;44.810;10.334;2023-04-25T08:50:24;100056.41;;;16.38
45393;BMP280;31129;44.810;10.334;2023-04-25T08:52:54;100065.13;;;16.24
45393;BMP280;31129;44.810;10.334;2023-04-25T08:55:21;100060.13;;;16.03
45393;BMP280;31129;44.810;10.334;2023-04-25T08:57:49;100064.19;;;16.21
45393;BMP280;31129;44.810;10.334;2023-04-25T09:00:16;100057.69;;;16.18
45393;BMP280;31129;44.810;10.334;2023-04-25T09:02:43;100057.22;;;16.33
45393;BMP280;31129;44.810;10.334;2023-04-25T09:05:09;100072.72;;;16.36
45393;BMP280;31129;44.810;10.334;2023-04-25T09:07:37;100057.47;;;16.48
45393;BMP280;31129;44.810;10.334;2023-04-25T09:10:03;100068.06;;;16.44
45393;BMP280;31129;44.810;10.334;2023-04-25T09:12:32;100069.16;;;16.23
45393;BMP280;31129;44.810;10.334;2023-04-25T09:15:11;100070.09;;;16.44
45393;BMP280;31129;44.810;10.334;2023-04-25T09:17:58;100075.34;;;16.61
45393;BMP280;31129;44.810;10.334;2023-04-25T09:20:28;100072.69;;;16.55
45393;BMP280;31129;44.810;10.334;2023-04-25T09:23:05;100074.28;;;16.64
45393;BMP280;31129;44.810;10.334;2023-04-25T09:25:37;100073.75;;;16.65
45393;BMP280;31129;44.810;10.334;2023-04-25T09:28:06;100070.88;;;16.89
45393;BMP280;31129;44.810;10.334;2023-04-25T09:30:34;100075.22;;;16.85
45393;BMP280;31129;44.810;10.334;2023-04-25T09:33:07;100068.06;;;16.76
45393;BMP280;31129;44.810;10.334;2023-04-25T09:35:39;100069.91;;;16.87
45393;BMP280;31129;44.810;10.334;2023-04-25T09:38:11;100065.16;;;16.87
45393;BMP280;31129;44.810;10.334;2023-04-25T09:40:56;100068.34;;;17.05
45393;BMP280;31129;44.810;10.334;2023-04-25T09:43:33;100065.06;;;17.19
45393;BMP280;31129;44.810;10.334;2023-04-25T09:45:59;100070.69;;;17.27
45393;BMP280;31129;44.810;10.334;2023-04-25T09:48:27;100058.44;;;17.28
45393;BMP280;31129;44.810;10.334;2023-04-25T09:51:11;100068.38;;;17.18
45393;BMP280;31129;44.810;10.334;2023-04-25T10:11:55;100046.72;;;17.61
45393;BMP280;31129;44.810;10.334;2023-04-25T10:19:04;100047.25;;;17.60
45393;BMP280;31129;44.810;10.334;2023-04-25T10:32:04;100028.66;;;18.07
45393;BMP280;31129;44.810;10.334;2023-04-25T10:38:21;100020.59;;;18.30
45393;BMP280;31129;44.810;10.334;2023-04-25T10:42:01;100025.19;;;18.48
45393;BMP280;31129;44.810;10.334;2023-04-25T10:45:14;100016.53;;;18.31
45393;BMP280;31129;44.810;10.334;2023-04-25T10:51:11;100019.84;;;17.88
45393;BMP280;31129;44.810;10.334;2023-04-25T10:54:18;100030.53;;;18.26
45393;BMP280;31129;44.810;10.334;2023-04-25T10:57:31;100023.75;;;18.13
45393;BMP280;31129;44.810;10.334;2023-04-25T11:00:23;100029.00;;;18.04
45393;BMP280;31129;44.810;10.334;2023-04-25T11:03:02;100028.13;;;17.88
45393;BMP280;31129;44.810;10.334;2023-04-25T11:05:41;100018.28;;;18.34
45393;BMP280;31129;44.810;10.334;2023-04-25T11:09:15;100019.03;;;18.63
45393;BMP280;31129;44.810;10.334;2023-04-25T11:11:54;100017.84;;;18.79
45393;BMP280;31129;44.810;10.334;2023-04-25T11:14:34;100025.00;;;18.96
45393;BMP280;31129;44.810;10.334;2023-04-25T11:17:12;100012.00;;;18.83
45393;BMP280;31129;44.810;10.334;2023-04-25T11:20:10;100008.72;;;18.64
45393;BMP280;31129;44.810;10.334;2023-04-25T11:26:22;100007.75;;;19.10
45393;BMP280;31129;44.810;10.334;2023-04-25T11:29:13;100012.63;;;19.32
45393;BMP280;31129;44.810;10.334;2023-04-25T11:31:50;100008.28;;;19.09
45393;BMP280;31129;44.810;10.334;2023-04-25T11:38:00;99996.50;;;19.59
45393;BMP280;31129;44.810;10.334;2023-04-25T11:40:38;99994.31;;;19.65
45393;BMP280;31129;44.810;10.334;2023-04-25T11:43:04;99999.03;;;19.50
45393;BMP280;31129;44.810;10.334;2023-04-25T11:45:33;100001.53;;;19.76
45393;BMP280;31129;44.810;10.334;2023-04-25T11:51:52;100003.44;;;19.96
45393;BMP280;31129;44.810;10.334;2023-04-25T11:54:31;99984.81;;;19.38
45393;BMP280;31129;44.810;10.334;2023-04-25T12:04:49;99990.03;;;18.77
45393;BMP280;31129;44.810;10.334;2023-04-25T12:14:36;99986.66;;;20.17
45393;BMP280;31129;44.810;10.334;2023-04-25T12:17:09;99976.47;;;20.42
45393;BMP280;31129;44.810;10.334;2023-04-25T12:19:38;99975.00;;;20.49
45393;BMP280;31129;44.810;10.334;2023-04-25T12:22:28;99966.66;;;20.49
45393;BMP280;31129;44.810;10.334;2023-04-25T12:24:57;99962.22;;;20.53
45393;BMP280;31129;44.810;10.334;2023-04-25T12:35:14;99950.41;;;20.53
45393;BMP280;31129;44.810;10.334;2023-04-25T12:38:01;99948.13;;;20.82
45393;BMP280;31129;44.810;10.334;2023-04-25T12:51:17;99954.69;;;21.74
45393;BMP280;31129;44.810;10.334;2023-04-25T12:53:51;99948.91;;;21.55
45393;BMP280;31129;44.810;10.334;2023-04-25T12:59:38;99955.63;;;21.94
45393;BMP280;31129;44.810;10.334;2023-04-25T13:02:18;99960.69;;;21.88
45393;BMP280;31129;44.810;10.334;2023-04-25T13:08:33;99953.09;;;21.88
45393;BMP280;31129;44.810;10.334;2023-04-25T13:11:21;99971.44;;;22.08
45393;BMP280;31129;44.810;10.334;2023-04-25T13:15:13;99963.16;;;22.60
45393;BMP280;31129;44.810;10.334;2023-04-25T13:17:23;99959.66;;;22.59
45393;BMP280;31129;44.810;10.334;2023-04-25T13:20:27;99962.50;;;22.86
45393;BMP280;31129;44.810;10.334;2023-04-25T13:23:08;99959.31;;;22.73
45393;BMP280;31129;44.810;10.334;2023-04-25T13:26:00;99958.63;;;22.99
45393;BMP280;31129;44.810;10.334;2023-04-25T13:28:35;99956.81;;;23.11
45393;BMP280;31129;44.810;10.334;2023-04-25T13:34:37;99964.31;;;21.01
45393;BMP280;31129;44.810;10.334;2023-04-25T13:37:32;99964.44;;;20.63
45393;BMP280;31129;44.810;10.334;2023-04-25T13:40:29;99962.78;;;21.79
45393;BMP280;31129;44.810;10.334;2023-04-25T13:43:51;99961.34;;;22.38
45393;BMP280;31129;44.810;10.334;2023-04-25T13:46:20;99966.13;;;22.79
45393;BMP280;31129;44.810;10.334;2023-04-25T13:53:00;99955.88;;;22.64
45393;BMP280;31129;44.810;10.334;2023-04-25T13:56:20;99965.59;;;22.39
45393;BMP280;31129;44.810;10.334;2023-04-25T13:58:57;99960.94;;;22.93
45393;BMP280;31129;44.810;10.334;2023-04-25T14:04:43;99969.69;;;22.38
45393;BMP280;31129;44.810;10.334;2023-04-25T14:07:44;99984.13;;;23.22
45393;BMP280;31129;44.810;10.334;2023-04-25T14:11:19;99984.66;;;23.65
45393;BMP280;31129;44.810;10.334;2023-04-25T14:13:45;99990.50;;;22.71
45393;BMP280;31129;44.810;10.334;2023-04-25T14:16:56;99980.19;;;22.05
45393;BMP280;31129;44.810;10.334;2023-04-25T14:19:18;99985.56;;;21.13
45393;BMP280;31129;44.810;10.334;2023-04-25T14:24:36;99986.53;;;21.01
45393;BMP280;31129;44.810;10.334;2023-04-25T14:27:16;99997.56;;;21.08
45393;BMP280;31129;44.810;10.334;2023-04-25T14:30:20;99990.59;;;21.00
45393;BMP280;31129;44.810;10.334;2023-04-25T14:32:49;99984.16;;;21.69
45393;BMP280;31129;44.810;10.334;2023-04-25T14:35:18;99993.66;;;21.59
45393;BMP280;31129;44.810;10.334;2023-04-25T14:38:01;99980.19;;;21.08
45393;BMP280;31129;44.810;10.334;2023-04-25T14:40:26;99972.94;;;20.65
45393;BMP280;31129;44.810;10.334;2023-04-25T14:43:04;99969.78;;;20.68
45393;BMP280;31129;44.810;10.334;2023-04-25T14:45:29;99971.38;;;20.86
45393;BMP280;31129;44.810;10.334;2023-04-25T14:48:10;99971.16;;;21.00
45393;BMP280;31129;44.810;10.334;2023-04-25T14:50:36;99982.34;;;20.62
45393;BMP280;31129;44.810;10.334;2023-04-25T14:53:06;99991.72;;;21.36
45393;BMP280;31129;44.810;10.334;2023-04-25T14:55:40;99996.50;;;21.44
45393;BMP280;31129;44.810;10.334;2023-04-25T14:58:05;99996.25;;;21.89
45393;BMP280;31129;44.810;10.334;2023-04-25T15:00:44;100018.63;;;21.66
45393;BMP280;31129;44.810;10.334;2023-04-25T15:03:16;100031.00;;;21.98
45393;BMP280;31129;44.810;10.334;2023-04-25T15:08:58;100033.75;;;21.41
45393;BMP280;31129;44.810;10.334;2023-04-25T15:11:59;100040.69;;;21.57
45393;BMP280;31129;44.810;10.334;2023-04-25T15:14:31;100035.22;;;20.79
45393;BMP280;31129;44.810;10.334;2023-04-25T15:17:04;100048.91;;;20.54
45393;BMP280;31129;44.810;10.334;2023-04-25T15:19:32;100038.16;;;20.28
45393;BMP280;31129;44.810;10.334;2023-04-25T15:22:01;100047.03;;;20.03
45393;BMP280;31129;44.810;10.334;2023-04-25T15:24:28;100062.00;;;19.49
45393;BMP280;31129;44.810;10.334;2023-04-25T15:26:56;100056.13;;;19.24
45393;BMP280;31129;44.810;10.334;2023-04-25T15:29:23;100035.94;;;19.09
45393;BMP280;31129;44.810;10.334;2023-04-25T15:31:50;100047.75;;;18.60
45393;BMP280;31129;44.810;10.334;2023-04-25T15:34:20;100062.38;;;18.27
45393;BMP280;31129;44.810;10.334;2023-04-25T15:36:46;100077.16;;;17.69
45393;BMP280;31129;44.810;10.334;2023-04-25T15:39:12;100071.66;;;17.03
45393;BMP280;31129;44.810;10.334;2023-04-25T15:41:44;100111.59;;;16.97
45393;BMP280;31129;44.810;10.334;2023-04-25T15:44:10;100107.00;;;16.54
45393;BMP280;31129;44.810;10.334;2023-04-25T15:46:36;100119.03;;;16.32
45393;BMP280;31129;44.810;10.334;2023-04-25T15:49:01;100124.84;;;15.91
45393;BMP280;31129;44.810;10.334;2023-04-25T15:51:30;100139.88;;;15.90
45393;BMP280;31129;44.810;10.334;2023-04-25T15:53:58;100153.31;;;15.45
45393;BMP280;31129;44.810;10.334;2023-04-25T15:56:24;100160.59;;;15.07
45393;BMP280;31129;44.810;10.334;2023-04-25T15:58:49;100168.84;;;14.72
45393;BMP280;31129;44.810;10.334;2023-04-25T16:01:15;100174.94;;;14.94
45393;BMP280;31129;44.810;10.334;2023-04-25T16:03:41;100162.56;;;14.77
45393;BMP280;31129;44.810;10.334;2023-04-25T16:08:42;100173.09;;;14.67
45393;BMP280;31129;44.810;10.334;2023-04-25T16:11:11;100167.81;;;14.75
45393;BMP280;31129;44.810;10.334;2023-04-25T16:13:42;100169.53;;;14.78
45393;BMP280;31129;44.810;10.334;2023-04-25T16:16:07;100162.72;;;14.90